sensor_id;sensor_type;location;lat;lon;timestamp;temperature;humidity
30150;DHT22;16962;48.646;9.026;2023-03-14T00:01:15;8.50;99.90
30150;DHT22;16962;48.646;9.026;2023-03-14T00:04:07;8.50;99.90
30150;DHT22;16962;48.646;9.026;2023-03-14T00:06:56;8.40;99.90
30150;DHT22;16962;48.646;9.026;2023-03-14T00:09:44;8.50;99.90
30150;DHT22;16962;48.646;9.026;2023-03-14T00:12:31;8.50;99.90
30150;DHT22;16962;48.646;9.026;2023-03-14T00:15:21;8.50;99.90
30150;DHT22;16962;48.646;9.026;2023-03-14T00:18:10;8.50;99.90
30150;DHT22;16962;48.646;9.026;2023-03-14T00:20:59;8.50;99.90
30150;DHT22;16962;48.646;9.026;2023-03-14T00:23:46;8.50;99.90
30150;DHT22;16962;48.646;9.026;2023-03-14T00:26:33;8.50;99.90
30150;DHT22;16962;48.646;9.026;2023-03-14T00:29:20;8.50;99.90
30150;DHT22;16962;48.646;9.026;2023-03-14T00:32:09;8.50;99.90
30150;DHT22;16962;48.646;9.026;2023-03-14T00:34:56;8.60;99.90
30150;DHT22;16962;48.646;9.026;2023-03-14T00:37:46;8.60;99.90
30150;DHT22;16962;48.646;9.026;2023-03-14T00:40:38;8.70;99.90
30150;DHT22;16962;48.646;9.026;2023-03-14T00:43:28;8.70;99.90
30150;DHT22;16962;48.646;9.026;2023-03-14T00:46:15;8.70;99.90
30150;DHT22;16962;48.646;9.026;2023-03-14T00:49:02;8.70;99.90
30150;DHT22;16962;48.646;9.026;2023-03-14T00:51:52;8.70;99.90
30150;DHT22;16962;48.646;9.026;2023-03-14T00:54:39;8.70;99.90
30150;DHT22;16962;48.646;9.026;2023-03-14T00:57:28;8.60;99.90
30150;DHT22;16962;48.646;9.026;2023-03-14T01:00:17;8.70;99.90
30150;DHT22;16962;48.646;9.026;2023-03-14T01:03:05;8.70;99.90
30150;DHT22;16962;48.646;9.026;2023-03-14T01:05:52;8.60;99.90
30150;DHT22;16962;48.646;9.026;2023-03-14T01:08:39;8.70;99.90
30150;DHT22;16962;48.646;9.026;2023-03-14T01:11:27;8.60;99.90
30150;DHT22;16962;48.646;9.026;2023-03-14T01:14:15;8.60;99.90
30150;DHT22;16962;48.646;9.026;2023-03-14T01:17:02;8.70;99.90
30150;DHT22;16962;48.646;9.026;2023-03-14T01:19:52;8.70;99.90
30150;DHT22;16962;48.646;9.026;2023-03-14T01:22:42;8.70;99.90
30150;DHT22;16962;48.646;9.026;2023-03-14T01:25:32;8.70;99.90
30150;DHT22;16962;48.646;9.026;2023-03-14T01:28:19;8.70;99.90
30150;DHT22;16962;48.646;9.026;2023-03-14T01:31:09;8.70;99.90
30150;DHT22;16962;48.646;9.026;2023-03-14T01:33:59;8.70;99.90
30150;DHT22;16962;48.646;9.026;2023-03-14T01:36:46;8.70;99.90
30150;DHT22;16962;48.646;9.026;2023-03-14T01:39:33;8.60;99.90
30150;DHT22;16962;48.646;9.026;2023-03-14T01:42:23;8.60;99.90
30150;DHT22;16962;48.646;9.026;2023-03-14T01:48:41;8.40;99.90
30150;DHT22;16962;48.646;9.026;2023-03-14T01:51:54;8.40;99.90
30150;DHT22;16962;48.646;9.026;2023-03-14T01:54:46;8.40;99.90
30150;DHT22;16962;48.646;9.026;2023-03-14T01:57:39;8.30;99.90
30150;DHT22;16962;48.646;9.026;2023-03-14T02:00:31;8.30;99.90
30150;DHT22;16962;48.646;9.026;2023-03-14T02:03:22;8.30;99.90
30150;DHT22;16962;48.646;9.026;2023-03-14T02:06:11;8.30;99.90
30150;DHT22;16962;48.646;9.026;2023-03-14T02:09:00;8.30;99.90
30150;DHT22;16962;48.646;9.026;2023-03-14T02:11:49;8.30;99.90
30150;DHT22;16962;48.646;9.026;2023-03-14T02:14:37;8.30;99.90
30150;DHT22;16962;48.646;9.026;2023-03-14T02:17:36;8.30;99.90
30150;DHT22;16962;48.646;9.026;2023-03-14T02:23:58;8.20;99.90
30150;DHT22;16962;48.646;9.026;2023-03-14T02:27:10;8.30;99.90
30150;DHT22;16962;48.646;9.026;2023-03-14T02:30:06;8.20;99.90
30150;DHT22;16962;48.646;9.026;2023-03-14T02:32:58;8.20;99.90
30150;DHT22;16962;48.646;9.026;2023-03-14T02:35:57;8.20;99.90
30150;DHT22;16962;48.646;9.026;2023-03-14T02:39:00;8.20;99.90
30150;DHT22;16962;48.646;9.026;2023-03-14T02:41:52;8.20;99.90
30150;DHT22;16962;48.646;9.026;2023-03-14T02:44:54;8.20;99.90
30150;DHT22;16962;48.646;9.026;2023-03-14T02:47:54;8.20;99.90
30150;DHT22;16962;48.646;9.026;2023-03-14T02:50:43;8.30;99.90
30150;DHT22;16962;48.646;9.026;2023-03-14T02:53:34;8.20;99.90
30150;DHT22;16962;48.646;9.026;2023-03-14T02:56:22;8.20;99.90
30150;DHT22;16962;48.646;9.026;2023-03-14T02:59:10;8.10;99.90
30150;DHT22;16962;48.646;9.026;2023-03-14T03:02:02;8.20;99.90
30150;DHT22;16962;48.646;9.026;2023-03-14T03:04:49;8.10;99.90
30150;DHT22;16962;48.646;9.026;2023-03-14T03:07:38;8.20;99.90
30150;DHT22;16962;48.646;9.026;2023-03-14T03:10:26;8.10;99.90
30150;DHT22;16962;48.646;9.026;2023-03-14T03:13:13;8.20;99.90
30150;DHT22;16962;48.646;9.026;2023-03-14T03:16:03;8.10;99.90
30150;DHT22;16962;48.646;9.026;2023-03-14T03:18:53;8.10;99.90
30150;DHT22;16962;48.646;9.026;2023-03-14T03:21:43;8.10;69.60
30150;DHT22;16962;48.646;9.026;2023-03-14T03:24:30;8.10;1.00
30150;DHT22;16962;48.646;9.026;2023-03-14T03:27:21;8.10;99.90
30150;DHT22;16962;48.646;9.026;2023-03-14T03:30:10;8.20;99.90
30150;DHT22;16962;48.646;9.026;2023-03-14T03:32:57;8.10;1.00
30150;DHT22;16962;48.646;9.026;2023-03-14T03:35:45;8.00;99.90
30150;DHT22;16962;48.646;9.026;2023-03-14T03:38:33;8.00;99.90
30150;DHT22;16962;48.646;9.026;2023-03-14T03:41:20;8.00;1.00
30150;DHT22;16962;48.646;9.026;2023-03-14T03:44:07;8.00;99.90
30150;DHT22;16962;48.646;9.026;2023-03-14T03:46:55;8.00;23.30
30150;DHT22;16962;48.646;9.026;2023-03-14T03:49:42;7.90;99.90
30150;DHT22;16962;48.646;9.026;2023-03-14T03:52:30;7.90;99.90
30150;DHT22;16962;48.646;9.026;2023-03-14T03:55:26;8.00;1.00
30150;DHT22;16962;48.646;9.026;2023-03-14T03:58:17;7.90;99.90
30150;DHT22;16962;48.646;9.026;2023-03-14T04:01:08;7.90;99.90
30150;DHT22;16962;48.646;9.026;2023-03-14T04:04:00;7.90;99.90
30150;DHT22;16962;48.646;9.026;2023-03-14T04:06:51;7.90;47.70
30150;DHT22;16962;48.646;9.026;2023-03-14T04:09:39;7.90;31.00
30150;DHT22;16962;48.646;9.026;2023-03-14T04:12:28;7.90;1.00
30150;DHT22;16962;48.646;9.026;2023-03-14T04:15:18;7.90;99.90
30150;DHT22;16962;48.646;9.026;2023-03-14T04:18:06;7.90;99.90
30150;DHT22;16962;48.646;9.026;2023-03-14T04:20:57;8.00;99.90
30150;DHT22;16962;48.646;9.026;2023-03-14T04:23:44;7.90;99.90
30150;DHT22;16962;48.646;9.026;2023-03-14T04:26:31;7.90;99.90
30150;DHT22;16962;48.646;9.026;2023-03-14T04:29:18;7.90;99.90
30150;DHT22;16962;48.646;9.026;2023-03-14T04:32:05;7.90;99.90
30150;DHT22;16962;48.646;9.026;2023-03-14T04:34:53;7.90;64.30
30150;DHT22;16962;48.646;9.026;2023-03-14T04:37:42;7.80;48.80
30150;DHT22;16962;48.646;9.026;2023-03-14T04:40:30;7.80;30.60
30150;DHT22;16962;48.646;9.026;2023-03-14T04:43:20;7.70;81.30
30150;DHT22;16962;48.646;9.026;2023-03-14T04:46:08;7.70;81.40
30150;DHT22;16962;48.646;9.026;2023-03-14T04:48:55;7.70;85.20
30150;DHT22;16962;48.646;9.026;2023-03-14T04:51:43;7.70;46.80
30150;DHT22;16962;48.646;9.026;2023-03-14T04:54:30;7.70;22.30
30150;DHT22;16962;48.646;9.026;2023-03-14T04:57:18;7.70;14.80
30150;DHT22;16962;48.646;9.026;2023-03-14T05:00:05;7.70;1.00
30150;DHT22;16962;48.646;9.026;2023-03-14T05:06:40;7.60;1.00
30150;DHT22;16962;48.646;9.026;2023-03-14T05:09:31;7.60;4.90
30150;DHT22;16962;48.646;9.026;2023-03-14T05:12:19;7.60;1.00
30150;DHT22;16962;48.646;9.026;2023-03-14T05:15:07;7.60;4.50
30150;DHT22;16962;48.646;9.026;2023-03-14T05:17:59;7.60;1.00
30150;DHT22;16962;48.646;9.026;2023-03-14T05:20:46;7.50;1.00
30150;DHT22;16962;48.646;9.026;2023-03-14T05:23:37;7.60;1.00
30150;DHT22;16962;48.646;9.026;2023-03-14T05:26:24;7.60;1.00
30150;DHT22;16962;48.646;9.026;2023-03-14T05:29:11;7.60;1.00
30150;DHT22;16962;48.646;9.026;2023-03-14T05:31:58;7.60;1.00
30150;DHT22;16962;48.646;9.026;2023-03-14T05:34:46;7.70;1.00
30150;DHT22;16962;48.646;9.026;2023-03-14T05:37:33;7.80;1.00
30150;DHT22;16962;48.646;9.026;2023-03-14T05:40:21;7.70;1.00
30150;DHT22;16962;48.646;9.026;2023-03-14T05:43:10;7.60;99.90
30150;DHT22;16962;48.646;9.026;2023-03-14T05:45:57;7.70;99.90
30150;DHT22;16962;48.646;9.026;2023-03-14T05:48:45;7.60;99.90
30150;DHT22;16962;48.646;9.026;2023-03-14T05:51:32;7.70;99.90
30150;DHT22;16962;48.646;9.026;2023-03-14T05:54:22;7.60;99.90
30150;DHT22;16962;48.646;9.026;2023-03-14T05:57:09;7.60;99.90
30150;DHT22;16962;48.646;9.026;2023-03-14T05:59:58;7.60;99.90
30150;DHT22;16962;48.646;9.026;2023-03-14T06:02:45;7.60;99.90
30150;DHT22;16962;48.646;9.026;2023-03-14T06:05:33;7.60;99.90
30150;DHT22;16962;48.646;9.026;2023-03-14T06:08:26;7.70;99.90
30150;DHT22;16962;48.646;9.026;2023-03-14T06:11:13;7.70;99.90
30150;DHT22;16962;48.646;9.026;2023-03-14T06:14:00;7.80;99.90
30150;DHT22;16962;48.646;9.026;2023-03-14T06:16:48;7.90;99.90
30150;DHT22;16962;48.646;9.026;2023-03-14T06:19:36;8.00;99.90
30150;DHT22;16962;48.646;9.026;2023-03-14T06:22:23;7.90;99.90
30150;DHT22;16962;48.646;9.026;2023-03-14T06:25:10;8.00;99.90
30150;DHT22;16962;48.646;9.026;2023-03-14T06:27:59;7.90;99.90
30150;DHT22;16962;48.646;9.026;2023-03-14T06:30:46;8.00;94.50
30150;DHT22;16962;48.646;9.026;2023-03-14T06:33:34;8.10;59.80
30150;DHT22;16962;48.646;9.026;2023-03-14T06:36:24;8.10;31.00
30150;DHT22;16962;48.646;9.026;2023-03-14T06:39:12;8.10;8.00
30150;DHT22;16962;48.646;9.026;2023-03-14T06:41:59;8.30;1.00
30150;DHT22;16962;48.646;9.026;2023-03-14T06:44:46;8.30;1.00
30150;DHT22;16962;48.646;9.026;2023-03-14T06:47:34;8.30;1.00
30150;DHT22;16962;48.646;9.026;2023-03-14T06:50:21;8.30;1.00
30150;DHT22;16962;48.646;9.026;2023-03-14T06:53:11;8.40;1.00
30150;DHT22;16962;48.646;9.026;2023-03-14T06:56:02;8.50;1.00
30150;DHT22;16962;48.646;9.026;2023-03-14T06:58:52;8.60;99.90
30150;DHT22;16962;48.646;9.026;2023-03-14T07:01:39;8.70;99.90
30150;DHT22;16962;48.646;9.026;2023-03-14T07:04:29;8.70;99.90
30150;DHT22;16962;48.646;9.026;2023-03-14T07:07:19;8.70;99.90
30150;DHT22;16962;48.646;9.026;2023-03-14T07:10:07;8.80;99.90
30150;DHT22;16962;48.646;9.026;2023-03-14T07:12:56;8.90;99.90
30150;DHT22;16962;48.646;9.026;2023-03-14T07:15:45;9.00;99.90
30150;DHT22;16962;48.646;9.026;2023-03-14T07:18:33;9.20;99.90
30150;DHT22;16962;48.646;9.026;2023-03-14T07:21:37;9.40;99.90
30150;DHT22;16962;48.646;9.026;2023-03-14T07:24:25;9.50;99.90
30150;DHT22;16962;48.646;9.026;2023-03-14T07:27:12;9.70;99.90
30150;DHT22;16962;48.646;9.026;2023-03-14T07:30:03;9.60;99.90
30150;DHT22;16962;48.646;9.026;2023-03-14T07:32:50;9.50;99.90
30150;DHT22;16962;48.646;9.026;2023-03-14T07:35:39;9.40;99.90
30150;DHT22;16962;48.646;9.026;2023-03-14T07:38:28;9.30;99.90
30150;DHT22;16962;48.646;9.026;2023-03-14T07:41:24;9.30;99.90
30150;DHT22;16962;48.646;9.026;2023-03-14T07:44:30;9.30;99.90
30150;DHT22;16962;48.646;9.026;2023-03-14T07:47:17;9.50;99.90
30150;DHT22;16962;48.646;9.026;2023-03-14T07:50:26;9.70;94.10
30150;DHT22;16962;48.646;9.026;2023-03-14T07:53:23;9.80;56.10
30150;DHT22;16962;48.646;9.026;2023-03-14T07:56:10;9.80;27.10
30150;DHT22;16962;48.646;9.026;2023-03-14T07:59:00;9.80;1.00
30150;DHT22;16962;48.646;9.026;2023-03-14T08:02:07;10.00;1.00
30150;DHT22;16962;48.646;9.026;2023-03-14T08:05:03;10.10;1.00
30150;DHT22;16962;48.646;9.026;2023-03-14T08:07:55;10.10;1.00
30150;DHT22;16962;48.646;9.026;2023-03-14T08:10:42;10.10;1.00
30150;DHT22;16962;48.646;9.026;2023-03-14T08:13:30;10.20;1.00
30150;DHT22;16962;48.646;9.026;2023-03-14T08:16:17;10.30;1.00
30150;DHT22;16962;48.646;9.026;2023-03-14T08:19:07;10.50;1.00
30150;DHT22;16962;48.646;9.026;2023-03-14T08:21:55;11.10;1.00
30150;DHT22;16962;48.646;9.026;2023-03-14T08:24:45;12.00;1.00
30150;DHT22;16962;48.646;9.026;2023-03-14T08:27:32;11.90;99.90
30150;DHT22;16962;48.646;9.026;2023-03-14T08:30:23;11.50;99.90
30150;DHT22;16962;48.646;9.026;2023-03-14T08:33:10;11.30;99.90
30150;DHT22;16962;48.646;9.026;2023-03-14T08:35:59;11.30;99.90
30150;DHT22;16962;48.646;9.026;2023-03-14T08:38:50;11.10;99.90
30150;DHT22;16962;48.646;9.026;2023-03-14T08:41:38;10.80;99.90
30150;DHT22;16962;48.646;9.026;2023-03-14T08:44:28;10.80;99.90
30150;DHT22;16962;48.646;9.026;2023-03-14T08:47:16;10.60;99.90
30150;DHT22;16962;48.646;9.026;2023-03-14T08:50:07;10.40;99.90
30150;DHT22;16962;48.646;9.026;2023-03-14T08:52:59;10.20;1.00
30150;DHT22;16962;48.646;9.026;2023-03-14T08:55:47;9.90;1.00
30150;DHT22;16962;48.646;9.026;2023-03-14T08:58:34;9.80;1.00
30150;DHT22;16962;48.646;9.026;2023-03-14T09:01:26;9.60;1.00
30150;DHT22;16962;48.646;9.026;2023-03-14T09:04:44;9.30;99.80
30150;DHT22;16962;48.646;9.026;2023-03-14T09:08:24;9.10;99.90
30150;DHT22;16962;48.646;9.026;2023-03-14T09:16:01;9.00;99.90
30150;DHT22;16962;48.646;9.026;2023-03-14T09:18:59;9.20;99.90
30150;DHT22;16962;48.646;9.026;2023-03-14T09:22:19;9.40;99.90
30150;DHT22;16962;48.646;9.026;2023-03-14T09:29:30;9.70;99.90
30150;DHT22;16962;48.646;9.026;2023-03-14T09:36:07;9.90;27.30
30150;DHT22;16962;48.646;9.026;2023-03-14T09:38:54;10.10;1.00
30150;DHT22;16962;48.646;9.026;2023-03-14T09:42:23;10.20;1.00
30150;DHT22;16962;48.646;9.026;2023-03-14T09:45:21;10.20;1.00
30150;DHT22;16962;48.646;9.026;2023-03-14T09:48:20;10.10;1.00
30150;DHT22;16962;48.646;9.026;2023-03-14T09:51:38;10.00;1.00
30150;DHT22;16962;48.646;9.026;2023-03-14T09:54:44;10.30;1.00
30150;DHT22;16962;48.646;9.026;2023-03-14T09:57:34;10.40;1.00
30150;DHT22;16962;48.646;9.026;2023-03-14T10:00:25;10.60;1.00
30150;DHT22;16962;48.646;9.026;2023-03-14T10:06:11;11.20;1.00
30150;DHT22;16962;48.646;9.026;2023-03-14T10:08:58;12.30;1.00
30150;DHT22;16962;48.646;9.026;2023-03-14T10:11:46;13.30;1.00
30150;DHT22;16962;48.646;9.026;2023-03-14T10:14:36;13.10;99.90
30150;DHT22;16962;48.646;9.026;2023-03-14T10:17:39;12.70;99.90
30150;DHT22;16962;48.646;9.026;2023-03-14T10:21:27;12.50;99.90
30150;DHT22;16962;48.646;9.026;2023-03-14T10:24:33;11.90;99.90
30150;DHT22;16962;48.646;9.026;2023-03-14T10:27:32;11.40;99.90
30150;DHT22;16962;48.646;9.026;2023-03-14T10:30:46;11.30;99.90
30150;DHT22;16962;48.646;9.026;2023-03-14T10:33:35;11.40;99.90
30150;DHT22;16962;48.646;9.026;2023-03-14T10:36:26;11.30;99.90
30150;DHT22;16962;48.646;9.026;2023-03-14T10:39:46;11.20;99.90
30150;DHT22;16962;48.646;9.026;2023-03-14T10:42:42;11.00;99.90
30150;DHT22;16962;48.646;9.026;2023-03-14T10:45:41;10.80;99.90
30150;DHT22;16962;48.646;9.026;2023-03-14T10:48:36;10.80;99.90
30150;DHT22;16962;48.646;9.026;2023-03-14T10:51:29;10.80;99.90
30150;DHT22;16962;48.646;9.026;2023-03-14T10:54:23;10.50;99.90
30150;DHT22;16962;48.646;9.026;2023-03-14T10:57:19;10.40;1.00
30150;DHT22;16962;48.646;9.026;2023-03-14T11:00:17;10.30;1.00
30150;DHT22;16962;48.646;9.026;2023-03-14T11:03:11;10.30;1.00
30150;DHT22;16962;48.646;9.026;2023-03-14T11:06:39;10.30;1.00
30150;DHT22;16962;48.646;9.026;2023-03-14T11:17:17;10.10;1.00
30150;DHT22;16962;48.646;9.026;2023-03-14T11:23:27;9.70;29.90
30150;DHT22;16962;48.646;9.026;2023-03-14T11:32:44;9.30;99.90
30150;DHT22;16962;48.646;9.026;2023-03-14T11:35:37;9.10;99.90
30150;DHT22;16962;48.646;9.026;2023-03-14T11:38:52;9.20;99.90
30150;DHT22;16962;48.646;9.026;2023-03-14T11:41:49;9.10;99.90
30150;DHT22;16962;48.646;9.026;2023-03-14T11:44:41;9.20;1.00
30150;DHT22;16962;48.646;9.026;2023-03-14T11:47:37;9.30;1.00
30150;DHT22;16962;48.646;9.026;2023-03-14T11:50:29;9.40;1.00
30150;DHT22;16962;48.646;9.026;2023-03-14T11:59:38;9.10;1.00
30150;DHT22;16962;48.646;9.026;2023-03-14T12:08:47;8.70;99.90
30150;DHT22;16962;48.646;9.026;2023-03-14T12:11:54;8.70;1.00
30150;DHT22;16962;48.646;9.026;2023-03-14T12:15:01;8.70;1.00
30150;DHT22;16962;48.646;9.026;2023-03-14T12:17:55;8.80;99.90
30150;DHT22;16962;48.646;9.026;2023-03-14T12:20:52;9.10;1.00
30150;DHT22;16962;48.646;9.026;2023-03-14T12:23:59;9.40;83.00
30150;DHT22;16962;48.646;9.026;2023-03-14T12:26:53;9.40;1.00
30150;DHT22;16962;48.646;9.026;2023-03-14T12:30:18;10.30;99.90
30150;DHT22;16962;48.646;9.026;2023-03-14T12:47:54;12.30;99.90
30150;DHT22;16962;48.646;9.026;2023-03-14T12:51:40;13.00;99.90
30150;DHT22;16962;48.646;9.026;2023-03-14T13:05:22;11.70;99.90
30150;DHT22;16962;48.646;9.026;2023-03-14T13:13:45;12.90;99.90
30150;DHT22;16962;48.646;9.026;2023-03-14T13:17:35;13.40;99.90
30150;DHT22;16962;48.646;9.026;2023-03-14T13:32:44;9.10;98.20
30150;DHT22;16962;48.646;9.026;2023-03-14T13:36:04;8.40;96.40
30150;DHT22;16962;48.646;9.026;2023-03-14T13:44:41;8.30;99.90
30150;DHT22;16962;48.646;9.026;2023-03-14T13:47:29;8.10;99.90
30150;DHT22;16962;48.646;9.026;2023-03-14T13:50:17;8.30;99.90
30150;DHT22;16962;48.646;9.026;2023-03-14T13:56:47;8.20;99.90
30150;DHT22;16962;48.646;9.026;2023-03-14T13:59:37;8.10;99.90
30150;DHT22;16962;48.646;9.026;2023-03-14T14:02:25;8.10;99.90
30150;DHT22;16962;48.646;9.026;2023-03-14T14:05:14;8.30;99.90
30150;DHT22;16962;48.646;9.026;2023-03-14T14:08:04;8.30;99.90
30150;DHT22;16962;48.646;9.026;2023-03-14T14:10:59;8.10;94.30
30150;DHT22;16962;48.646;9.026;2023-03-14T14:13:51;8.10;91.30
30150;DHT22;16962;48.646;9.026;2023-03-14T14:16:39;8.00;74.00
30150;DHT22;16962;48.646;9.026;2023-03-14T14:19:28;7.80;67.70
30150;DHT22;16962;48.646;9.026;2023-03-14T14:22:17;7.90;68.60
30150;DHT22;16962;48.646;9.026;2023-03-14T14:25:06;7.90;71.50
30150;DHT22;16962;48.646;9.026;2023-03-14T14:28:35;8.00;71.90
30150;DHT22;16962;48.646;9.026;2023-03-14T14:31:37;7.90;68.00
30150;DHT22;16962;48.646;9.026;2023-03-14T14:34:42;7.80;66.80
30150;DHT22;16962;48.646;9.026;2023-03-14T14:37:43;7.70;67.80
30150;DHT22;16962;48.646;9.026;2023-03-14T14:40:33;7.70;66.60
30150;DHT22;16962;48.646;9.026;2023-03-14T14:43:27;7.70;61.20
30150;DHT22;16962;48.646;9.026;2023-03-14T14:46:19;7.70;53.10
30150;DHT22;16962;48.646;9.026;2023-03-14T14:49:17;7.70;52.30
30150;DHT22;16962;48.646;9.026;2023-03-14T14:52:40;7.70;51.60
30150;DHT22;16962;48.646;9.026;2023-03-14T14:55:38;7.80;50.80
30150;DHT22;16962;48.646;9.026;2023-03-14T14:58:28;7.90;50.30
30150;DHT22;16962;48.646;9.026;2023-03-14T15:01:23;8.20;51.90
30150;DHT22;16962;48.646;9.026;2023-03-14T15:04:20;8.60;48.70
30150;DHT22;16962;48.646;9.026;2023-03-14T15:07:19;8.90;43.50
30150;DHT22;16962;48.646;9.026;2023-03-14T15:10:25;9.20;44.80
30150;DHT22;16962;48.646;9.026;2023-03-14T15:13:23;9.30;39.90
30150;DHT22;16962;48.646;9.026;2023-03-14T15:16:35;10.20;38.50
30150;DHT22;16962;48.646;9.026;2023-03-14T15:19:50;10.80;35.40
30150;DHT22;16962;48.646;9.026;2023-03-14T15:22:44;11.10;31.50
30150;DHT22;16962;48.646;9.026;2023-03-14T15:25:51;10.80;23.60
30150;DHT22;16962;48.646;9.026;2023-03-14T15:29:17;9.50;20.70
30150;DHT22;16962;48.646;9.026;2023-03-14T15:32:22;8.50;21.40
30150;DHT22;16962;48.646;9.026;2023-03-14T15:35:43;8.30;22.10
30150;DHT22;16962;48.646;9.026;2023-03-14T15:38:34;8.00;27.00
30150;DHT22;16962;48.646;9.026;2023-03-14T15:41:36;7.80;27.40
30150;DHT22;16962;48.646;9.026;2023-03-14T15:44:30;7.80;33.50
30150;DHT22;16962;48.646;9.026;2023-03-14T15:47:20;8.30;38.10
30150;DHT22;16962;48.646;9.026;2023-03-14T15:50:17;8.20;32.60
30150;DHT22;16962;48.646;9.026;2023-03-14T15:53:20;8.00;33.40
30150;DHT22;16962;48.646;9.026;2023-03-14T15:56:24;8.20;35.70
30150;DHT22;16962;48.646;9.026;2023-03-14T15:59:35;8.10;36.50
30150;DHT22;16962;48.646;9.026;2023-03-14T16:11:04;7.90;39.10
30150;DHT22;16962;48.646;9.026;2023-03-14T16:13:58;7.70;43.40
30150;DHT22;16962;48.646;9.026;2023-03-14T16:21:57;8.70;42.60
30150;DHT22;16962;48.646;9.026;2023-03-14T16:29:05;7.80;47.30
30150;DHT22;16962;48.646;9.026;2023-03-14T16:31:57;7.30;54.00
30150;DHT22;16962;48.646;9.026;2023-03-14T16:34:51;7.10;58.60
30150;DHT22;16962;48.646;9.026;2023-03-14T16:37:44;7.10;62.10
30150;DHT22;16962;48.646;9.026;2023-03-14T16:40:32;7.10;70.00
30150;DHT22;16962;48.646;9.026;2023-03-14T16:43:29;7.00;72.00
30150;DHT22;16962;48.646;9.026;2023-03-14T16:46:17;6.90;76.90
30150;DHT22;16962;48.646;9.026;2023-03-14T16:49:05;6.90;83.30
30150;DHT22;16962;48.646;9.026;2023-03-14T16:51:58;6.80;89.20
30150;DHT22;16962;48.646;9.026;2023-03-14T16:54:45;6.80;95.50
30150;DHT22;16962;48.646;9.026;2023-03-14T16:57:33;6.70;99.90
30150;DHT22;16962;48.646;9.026;2023-03-14T17:00:44;6.60;99.90
30150;DHT22;16962;48.646;9.026;2023-03-14T17:08:49;6.10;99.90
30150;DHT22;16962;48.646;9.026;2023-03-14T17:12:16;6.00;99.90
30150;DHT22;16962;48.646;9.026;2023-03-14T17:15:31;5.80;99.90
30150;DHT22;16962;48.646;9.026;2023-03-14T17:19:00;5.80;99.90
30150;DHT22;16962;48.646;9.026;2023-03-14T17:22:07;5.70;99.90
30150;DHT22;16962;48.646;9.026;2023-03-14T17:25:17;5.70;99.90
30150;DHT22;16962;48.646;9.026;2023-03-14T17:31:52;5.60;99.90
30150;DHT22;16962;48.646;9.026;2023-03-14T17:35:30;5.60;99.90
30150;DHT22;16962;48.646;9.026;2023-03-14T17:39:24;5.50;99.90
30150;DHT22;16962;48.646;9.026;2023-03-14T17:47:07;5.30;99.90
30150;DHT22;16962;48.646;9.026;2023-03-14T17:50:01;5.20;1.00
30150;DHT22;16962;48.646;9.026;2023-03-14T17:52:58;5.10;1.00
30150;DHT22;16962;48.646;9.026;2023-03-14T17:56:11;5.00;1.00
30150;DHT22;16962;48.646;9.026;2023-03-14T18:02:18;4.80;1.00
30150;DHT22;16962;48.646;9.026;2023-03-14T18:05:06;4.80;1.00
30150;DHT22;16962;48.646;9.026;2023-03-14T18:07:56;4.80;1.00
30150;DHT22;16962;48.646;9.026;2023-03-14T18:10:44;4.90;1.00
30150;DHT22;16962;48.646;9.026;2023-03-14T18:13:31;4.80;23.10
30150;DHT22;16962;48.646;9.026;2023-03-14T18:16:19;4.40;99.90
30150;DHT22;16962;48.646;9.026;2023-03-14T18:19:08;4.20;1.00
30150;DHT22;16962;48.646;9.026;2023-03-14T18:21:56;4.00;99.90
30150;DHT22;16962;48.646;9.026;2023-03-14T18:24:43;3.80;1.00
30150;DHT22;16962;48.646;9.026;2023-03-14T18:27:31;3.70;99.90
30150;DHT22;16962;48.646;9.026;2023-03-14T18:30:19;3.70;23.20
30150;DHT22;16962;48.646;9.026;2023-03-14T18:33:07;3.60;99.90
30150;DHT22;16962;48.646;9.026;2023-03-14T18:35:55;3.60;99.90
30150;DHT22;16962;48.646;9.026;2023-03-14T18:38:43;3.50;99.90
30150;DHT22;16962;48.646;9.026;2023-03-14T18:41:38;3.50;1.00
30150;DHT22;16962;48.646;9.026;2023-03-14T18:44:26;3.40;1.00
30150;DHT22;16962;48.646;9.026;2023-03-14T18:47:17;3.30;96.00
30150;DHT22;16962;48.646;9.026;2023-03-14T18:50:06;3.30;99.90
30150;DHT22;16962;48.646;9.026;2023-03-14T18:52:54;3.20;99.90
30150;DHT22;16962;48.646;9.026;2023-03-14T18:55:53;3.30;99.90
30150;DHT22;16962;48.646;9.026;2023-03-14T18:58:55;3.40;1.00
30150;DHT22;16962;48.646;9.026;2023-03-14T19:01:47;3.40;99.90
30150;DHT22;16962;48.646;9.026;2023-03-14T19:04:36;3.50;1.00
30150;DHT22;16962;48.646;9.026;2023-03-14T19:07:23;3.50;1.00
30150;DHT22;16962;48.646;9.026;2023-03-14T19:10:11;3.60;99.90
30150;DHT22;16962;48.646;9.026;2023-03-14T19:13:01;3.60;99.90
30150;DHT22;16962;48.646;9.026;2023-03-14T19:15:49;3.70;19.00
30150;DHT22;16962;48.646;9.026;2023-03-14T19:18:38;3.80;1.00
30150;DHT22;16962;48.646;9.026;2023-03-14T19:21:32;3.80;99.90
30150;DHT22;16962;48.646;9.026;2023-03-14T19:24:20;3.90;99.90
30150;DHT22;16962;48.646;9.026;2023-03-14T19:27:09;4.10;99.90
30150;DHT22;16962;48.646;9.026;2023-03-14T19:29:59;4.20;99.90
30150;DHT22;16962;48.646;9.026;2023-03-14T19:32:47;4.30;1.00
30150;DHT22;16962;48.646;9.026;2023-03-14T19:35:38;4.40;1.00
30150;DHT22;16962;48.646;9.026;2023-03-14T19:38:25;4.40;1.00
30150;DHT22;16962;48.646;9.026;2023-03-14T19:41:13;4.40;1.00
30150;DHT22;16962;48.646;9.026;2023-03-14T19:44:04;4.40;1.00
30150;DHT22;16962;48.646;9.026;2023-03-14T19:46:55;4.40;1.00
30150;DHT22;16962;48.646;9.026;2023-03-14T19:49:45;4.30;1.00
30150;DHT22;16962;48.646;9.026;2023-03-14T19:52:33;4.30;1.00
30150;DHT22;16962;48.646;9.026;2023-03-14T19:55:24;4.30;1.00
30150;DHT22;16962;48.646;9.026;2023-03-14T19:58:12;4.20;1.00
30150;DHT22;16962;48.646;9.026;2023-03-14T20:01:00;4.20;1.00
30150;DHT22;16962;48.646;9.026;2023-03-14T20:03:48;4.10;1.00
30150;DHT22;16962;48.646;9.026;2023-03-14T20:06:36;4.00;1.00
30150;DHT22;16962;48.646;9.026;2023-03-14T20:09:24;3.90;1.00
30150;DHT22;16962;48.646;9.026;2023-03-14T20:12:12;3.90;1.00
30150;DHT22;16962;48.646;9.026;2023-03-14T20:15:01;3.80;1.00
30150;DHT22;16962;48.646;9.026;2023-03-14T20:17:51;3.80;1.00
30150;DHT22;16962;48.646;9.026;2023-03-14T20:20:40;3.70;40.20
30150;DHT22;16962;48.646;9.026;2023-03-14T20:23:30;3.70;91.60
30150;DHT22;16962;48.646;9.026;2023-03-14T20:26:17;3.70;99.90
30150;DHT22;16962;48.646;9.026;2023-03-14T20:29:05;3.80;99.90
30150;DHT22;16962;48.646;9.026;2023-03-14T20:31:53;3.80;99.90
30150;DHT22;16962;48.646;9.026;2023-03-14T20:34:41;3.90;99.90
30150;DHT22;16962;48.646;9.026;2023-03-14T20:37:29;4.00;99.90
30150;DHT22;16962;48.646;9.026;2023-03-14T20:40:18;4.00;99.90
30150;DHT22;16962;48.646;9.026;2023-03-14T20:43:06;4.00;99.90
30150;DHT22;16962;48.646;9.026;2023-03-14T20:45:56;4.00;99.90
30150;DHT22;16962;48.646;9.026;2023-03-14T20:48:43;4.00;99.90
30150;DHT22;16962;48.646;9.026;2023-03-14T20:51:32;4.10;99.90
30150;DHT22;16962;48.646;9.026;2023-03-14T20:54:19;4.10;99.90
30150;DHT22;16962;48.646;9.026;2023-03-14T20:57:08;4.00;99.90
30150;DHT22;16962;48.646;9.026;2023-03-14T20:59:57;4.00;99.90